createdAt,value
2023-03-12T00:00:39.882Z,2.20
2023-03-12T00:01:41.870Z,1.50
2023-03-12T00:02:43.804Z,2.20
2023-03-12T00:03:46.150Z,2.47
2023-03-12T00:04:48.138Z,3.80
2023-03-12T00:05:50.059Z,3.70
2023-03-12T00:06:52.337Z,2.50
2023-03-12T00:07:54.739Z,2.25
2023-03-12T00:08:56.762Z,1.60
2023-03-12T00:09:58.700Z,1.48
2023-03-12T00:11:01.034Z,1.30
2023-03-12T00:12:03.424Z,1.20
2023-03-12T00:13:05.461Z,1.77
2023-03-12T00:14:07.386Z,1.83
2023-03-12T00:15:10.105Z,1.23
2023-03-12T00:16:15.004Z,1.30
2023-03-12T00:17:17.055Z,1.17
2023-03-12T00:18:18.969Z,1.02
2023-03-12T00:19:20.893Z,1.10
2023-03-12T00:20:23.488Z,1.10
2023-03-12T00:21:25.968Z,0.88
2023-03-12T00:22:28.289Z,1.17
2023-03-12T00:23:30.331Z,1.35
2023-03-12T00:24:32.233Z,1.30
2023-03-12T00:25:34.211Z,1.50
2023-03-12T00:26:36.119Z,1.30
2023-03-12T00:27:38.125Z,1.10
2023-03-12T00:28:40.619Z,1.35
2023-03-12T00:29:42.532Z,1.35
2023-03-12T00:30:44.478Z,1.50
2023-03-12T00:31:46.406Z,1.48
2023-03-12T00:32:48.449Z,1.48
2023-03-12T00:33:50.809Z,1.30
2023-03-12T00:34:54.530Z,1.42
2023-03-12T00:35:59.834Z,1.70
2023-03-12T00:37:01.807Z,1.65
2023-03-12T00:38:03.773Z,1.70
2023-03-12T00:39:05.772Z,1.33
2023-03-12T00:40:09.831Z,1.40
2023-03-12T00:41:11.774Z,1.42
2023-03-12T00:42:13.978Z,1.83
2023-03-12T00:43:15.929Z,1.40
2023-03-12T00:44:17.810Z,1.80
2023-03-12T00:45:19.743Z,2.00
2023-03-12T00:46:22.205Z,1.70
2023-03-12T00:47:24.156Z,1.80
2023-03-12T00:48:26.233Z,1.67
2023-03-12T00:49:28.173Z,1.23
2023-03-12T00:50:30.094Z,1.40
2023-03-12T00:51:32.025Z,1.50
2023-03-12T00:52:33.924Z,1.63
2023-03-12T00:53:36.452Z,1.83
2023-03-12T00:54:38.556Z,1.63
2023-03-12T00:55:40.465Z,1.80
2023-03-12T00:56:42.390Z,1.70
2023-03-12T00:57:44.281Z,1.70
2023-03-12T00:58:46.427Z,1.80
2023-03-12T00:59:48.305Z,1.50
2023-03-12T01:00:50.279Z,1.70
2023-03-12T01:01:52.153Z,1.73
2023-03-12T01:02:54.110Z,1.65
2023-03-12T01:03:57.247Z,1.95
2023-03-12T01:04:59.167Z,2.00
2023-03-12T01:06:01.177Z,2.00
2023-03-12T01:07:03.198Z,1.58
2023-03-12T01:08:05.581Z,1.80
2023-03-12T01:09:08.326Z,1.65
2023-03-12T01:10:12.020Z,1.63
2023-03-12T01:11:16.131Z,1.90
2023-03-12T01:12:18.065Z,1.90
2023-03-12T01:13:20.621Z,1.92
2023-03-12T01:14:22.675Z,1.65
2023-03-12T01:15:24.890Z,1.95
2023-03-12T01:16:30.292Z,1.55
2023-03-12T01:17:32.242Z,1.63
2023-03-12T01:18:34.459Z,1.85
2023-03-12T01:19:36.371Z,1.58
2023-03-12T01:20:38.581Z,1.52
2023-03-12T01:21:40.643Z,1.70
2023-03-12T01:22:42.637Z,1.75
2023-03-12T01:23:44.575Z,1.23
2023-03-12T01:24:46.556Z,1.00
2023-03-12T01:25:49.440Z,1.67
2023-03-12T01:26:51.381Z,1.50
2023-03-12T01:27:53.345Z,1.48
2023-03-12T01:28:55.278Z,1.60
2023-03-12T01:29:57.193Z,1.80
2023-03-12T01:30:59.142Z,1.40
2023-03-12T01:32:01.103Z,1.60
2023-03-12T01:33:02.965Z,1.70
2023-03-12T01:34:04.850Z,1.67
2023-03-12T01:35:07.563Z,1.38
2023-03-12T01:36:22.242Z,1.38
2023-03-12T01:37:24.478Z,1.60
2023-03-12T01:38:26.363Z,2.53
2023-03-12T01:39:28.360Z,1.50
2023-03-12T01:40:34.633Z,1.85
2023-03-12T01:41:37.082Z,2.03
2023-03-12T01:42:38.980Z,1.90
2023-03-12T01:43:41.270Z,1.75
2023-03-12T01:44:58.812Z,1.73
2023-03-12T01:46:24.129Z,1.45
2023-03-12T01:47:27.815Z,1.60
2023-03-12T01:48:43.133Z,1.67
2023-03-12T01:49:45.680Z,1.10
2023-03-12T01:50:47.611Z,1.17
2023-03-12T01:51:57.533Z,1.42
2023-03-12T01:52:59.949Z,1.40
2023-03-12T01:54:07.013Z,1.10
2023-03-12T01:55:11.895Z,1.15
2023-03-12T01:56:15.702Z,1.15
2023-03-12T01:57:29.826Z,1.38
2023-03-12T01:58:34.341Z,1.08
2023-03-12T01:59:42.466Z,0.85
2023-03-12T02:00:45.269Z,1.20
2023-03-12T02:01:48.461Z,1.08
2023-03-12T02:02:52.660Z,1.02
2023-03-12T02:03:56.497Z,1.35
2023-03-12T02:05:17.373Z,1.05
2023-03-12T02:06:23.409Z,1.92
2023-03-12T02:07:25.271Z,1.17
2023-03-12T02:08:27.456Z,1.58
2023-03-12T02:09:32.354Z,1.27
2023-03-12T02:10:34.260Z,1.60
2023-03-12T02:11:36.338Z,1.25
2023-03-12T02:12:38.264Z,1.58
2023-03-12T02:13:40.393Z,1.58
2023-03-12T02:14:43.005Z,1.33
2023-03-12T02:15:45.022Z,1.30
2023-03-12T02:16:47.061Z,1.52
2023-03-12T02:17:48.946Z,1.08
2023-03-12T02:18:52.960Z,1.10
2023-03-12T02:20:11.054Z,1.50
2023-03-12T02:21:33.830Z,1.30
2023-03-12T02:22:37.349Z,1.25
2023-03-12T02:23:46.015Z,1.35
2023-03-12T02:25:24.282Z,1.20
2023-03-12T02:26:28.690Z,1.30
2023-03-12T02:27:34.086Z,1.02
2023-03-12T02:28:42.735Z,1.05
2023-03-12T02:29:46.075Z,1.65
2023-03-12T02:30:51.618Z,1.13
2023-03-12T02:33:07.574Z,2.17
2023-03-12T02:34:10.010Z,1.42
2023-03-12T02:35:13.784Z,0.85
2023-03-12T02:36:15.754Z,1.17
2023-03-12T02:37:19.279Z,1.50
2023-03-12T02:38:42.161Z,1.17
2023-03-12T02:39:49.900Z,1.30
2023-03-12T02:40:53.072Z,1.58
2023-03-12T02:41:57.813Z,1.40
2023-03-12T02:43:00.834Z,1.20
2023-03-12T02:44:04.669Z,1.48
2023-03-12T02:45:09.238Z,1.40
2023-03-12T02:46:11.529Z,1.40
2023-03-12T02:47:13.450Z,1.20
2023-03-12T02:48:15.360Z,1.25
2023-03-12T02:49:19.600Z,1.40
2023-03-12T02:50:21.814Z,1.35
2023-03-12T02:51:23.706Z,1.55
2023-03-12T02:52:25.709Z,1.52
2023-03-12T02:53:27.640Z,1.40
2023-03-12T02:54:30.099Z,1.30
2023-03-12T02:55:31.987Z,1.50
2023-03-12T02:56:33.998Z,1.20
2023-03-12T02:57:38.774Z,1.40
2023-03-12T02:58:43.024Z,1.85
2023-03-12T02:59:44.936Z,1.23
2023-03-12T03:00:46.873Z,1.60
2023-03-12T03:02:54.180Z,1.75
2023-03-12T03:03:56.241Z,1.50
2023-03-12T03:04:58.150Z,1.40
2023-03-12T03:06:00.061Z,1.30
2023-03-12T03:10:08.471Z,1.23
2023-03-12T03:11:11.208Z,1.70
2023-03-12T03:12:13.339Z,1.50
2023-03-12T03:13:15.215Z,1.52
2023-03-12T03:14:17.955Z,1.55
2023-03-12T03:15:20.021Z,1.67
2023-03-12T03:16:22.596Z,1.70
2023-03-12T03:17:25.223Z,1.90
2023-03-12T03:18:27.245Z,1.85
2023-03-12T03:21:35.017Z,2.00
2023-03-12T03:22:37.900Z,1.60
2023-03-12T03:24:42.189Z,1.60
2023-03-12T03:25:44.075Z,1.53
2023-03-12T03:26:46.043Z,1.38
2023-03-12T03:27:47.993Z,1.42
2023-03-12T03:28:50.196Z,1.50
2023-03-12T03:29:54.762Z,1.40
2023-03-12T03:31:01.343Z,1.27
2023-03-12T03:32:03.507Z,1.40
2023-03-12T03:33:05.396Z,1.48
2023-03-12T03:34:07.279Z,1.50
2023-03-12T03:35:09.900Z,1.10
2023-03-12T03:36:14.939Z,1.40
2023-03-12T03:37:16.916Z,1.42
2023-03-12T03:38:18.999Z,1.67
2023-03-12T03:39:21.060Z,1.38
2023-03-12T03:41:27.019Z,1.35
2023-03-12T03:42:28.922Z,1.85
2023-03-12T03:43:30.841Z,1.80
2023-03-12T03:44:32.692Z,1.30
2023-03-12T03:45:34.566Z,1.35
2023-03-12T03:46:36.618Z,1.40
2023-03-12T03:47:38.604Z,1.60
2023-03-12T03:48:41.322Z,1.70
2023-03-12T03:49:43.168Z,1.75
2023-03-12T03:50:45.023Z,1.60
2023-03-12T03:51:47.155Z,2.00
2023-03-12T03:52:49.102Z,2.00
2023-03-12T03:53:51.022Z,2.45
2023-03-12T03:54:57.009Z,1.80
2023-03-12T03:55:59.032Z,1.92
2023-03-12T03:57:01.524Z,1.85
2023-03-12T03:58:03.631Z,2.15
2023-03-12T03:59:05.801Z,1.90
2023-03-12T04:00:09.961Z,1.70
2023-03-12T04:01:14.291Z,1.98
2023-03-12T04:02:16.261Z,2.00
2023-03-12T04:03:18.417Z,1.95
2023-03-12T04:04:20.284Z,1.90
2023-03-12T04:05:22.248Z,2.08
2023-03-12T04:06:24.135Z,2.20
2023-03-12T04:09:30.995Z,2.00
2023-03-12T04:10:32.877Z,1.88
2023-03-12T04:11:34.843Z,2.00
2023-03-12T04:13:38.827Z,2.15
2023-03-12T04:14:43.676Z,2.37
2023-03-12T04:15:50.505Z,2.53
2023-03-12T04:16:52.356Z,2.10
2023-03-12T04:17:54.412Z,1.90
2023-03-12T04:18:56.456Z,2.53
2023-03-12T04:19:58.381Z,2.70
2023-03-12T04:21:00.295Z,1.95
2023-03-12T04:22:02.342Z,2.70
2023-03-12T04:23:04.308Z,2.20
2023-03-12T04:24:08.163Z,2.63
2023-03-12T04:25:10.973Z,2.28
2023-03-12T04:26:12.972Z,2.78
2023-03-12T04:27:14.915Z,2.25
2023-03-12T04:28:16.853Z,2.80
2023-03-12T04:29:19.668Z,2.67
2023-03-12T04:30:21.787Z,2.40
2023-03-12T04:31:23.861Z,2.50
2023-03-12T04:32:26.028Z,2.35
2023-03-12T04:33:29.723Z,3.00
2023-03-12T04:34:31.807Z,2.95
2023-03-12T04:35:33.862Z,2.60
2023-03-12T04:37:37.630Z,2.87
2023-03-12T04:38:39.533Z,2.85
2023-03-12T04:39:42.339Z,2.40
2023-03-12T04:40:44.192Z,2.97
2023-03-12T04:41:46.402Z,3.05
2023-03-12T04:42:48.634Z,2.30
2023-03-12T04:43:50.613Z,2.40
2023-03-12T04:44:52.799Z,2.60
2023-03-12T04:45:55.662Z,2.42
2023-03-12T04:46:57.622Z,2.40
2023-03-12T04:47:59.550Z,2.50
2023-03-12T04:49:02.995Z,2.25
2023-03-12T04:50:05.381Z,2.58
2023-03-12T04:51:07.325Z,2.33
2023-03-12T04:52:09.227Z,3.03
2023-03-12T04:53:11.763Z,3.25
2023-03-12T04:54:13.755Z,2.80
2023-03-12T04:55:15.721Z,3.28
2023-03-12T04:56:17.647Z,2.78
2023-03-12T04:57:19.889Z,2.85
2023-03-12T04:58:22.133Z,3.13
2023-03-12T04:59:24.041Z,2.30
2023-03-12T05:00:27.067Z,2.72
2023-03-12T05:01:32.222Z,2.65
2023-03-12T05:02:34.169Z,2.35
2023-03-12T05:03:36.112Z,2.80
2023-03-12T05:04:38.148Z,2.20
2023-03-12T05:05:40.090Z,2.63
2023-03-12T05:06:42.038Z,2.60
2023-03-12T05:07:43.946Z,2.72
2023-03-12T05:08:46.622Z,2.80
2023-03-12T05:09:48.575Z,2.97
2023-03-12T05:10:50.478Z,2.70
2023-03-12T05:11:52.372Z,2.47
2023-03-12T05:12:54.359Z,3.17
2023-03-12T05:13:56.331Z,2.75
2023-03-12T05:14:58.243Z,3.05
2023-03-12T05:16:00.179Z,3.30
2023-03-12T05:17:02.170Z,3.70
2023-03-12T05:18:04.117Z,2.95
2023-03-12T05:19:06.583Z,3.17
2023-03-12T05:20:09.368Z,3.60
2023-03-12T05:21:19.936Z,3.83
2023-03-12T05:22:21.849Z,3.97
2023-03-12T05:23:23.726Z,4.60
2023-03-12T05:24:25.689Z,4.00
2023-03-12T05:25:27.786Z,4.20
2023-03-12T05:26:32.534Z,4.20
2023-03-12T05:27:34.625Z,4.28
2023-03-12T05:28:36.527Z,4.40
2023-03-12T05:29:38.442Z,4.35
2023-03-12T05:30:40.836Z,5.05
2023-03-12T05:32:45.174Z,4.20
2023-03-12T05:33:48.555Z,4.10
2023-03-12T05:34:51.291Z,4.07
2023-03-12T05:35:53.451Z,4.20
2023-03-12T05:37:57.166Z,4.38
2023-03-12T05:38:59.047Z,4.18
2023-03-12T05:40:00.949Z,4.10
2023-03-12T05:42:06.414Z,4.28
2023-03-12T05:44:13.680Z,3.97
2023-03-12T05:45:19.757Z,4.72
2023-03-12T05:46:22.060Z,4.20
2023-03-12T05:47:24.029Z,4.32
2023-03-12T05:48:26.343Z,3.97
2023-03-12T05:49:28.300Z,4.25
2023-03-12T05:50:30.293Z,4.43
2023-03-12T05:51:32.208Z,3.80
2023-03-12T05:52:34.078Z,4.10
2023-03-12T06:20:29.019Z,4.55
2023-03-12T06:21:33.649Z,3.67
2023-03-12T06:22:35.878Z,4.38
2023-03-12T06:23:38.661Z,3.45
2023-03-12T06:24:42.657Z,3.88
2023-03-12T06:25:45.582Z,3.60
2023-03-12T06:26:47.485Z,4.38
2023-03-12T06:27:49.459Z,4.00
2023-03-12T06:28:52.217Z,4.03
2023-03-12T06:30:01.434Z,4.00
2023-03-12T06:31:05.027Z,3.95
2023-03-12T06:32:07.631Z,3.65
2023-03-12T06:33:09.649Z,3.40
2023-03-12T06:34:11.738Z,3.63
2023-03-12T06:35:14.023Z,3.50
2023-03-12T06:36:16.184Z,3.42
2023-03-12T06:37:18.194Z,3.70
2023-03-12T06:38:20.090Z,5.18
2023-03-12T06:39:21.961Z,5.20
2023-03-12T06:40:24.049Z,4.40
2023-03-12T06:41:25.992Z,5.95
2023-03-12T06:42:28.218Z,4.30
2023-03-12T06:43:32.939Z,4.20
2023-03-12T06:44:42.233Z,4.30
2023-03-12T06:45:44.113Z,4.28
2023-03-12T06:46:48.514Z,4.20
2023-03-12T06:47:52.752Z,4.22
2023-03-12T06:48:54.977Z,4.28
2023-03-12T06:49:56.867Z,4.78
2023-03-12T06:50:58.755Z,4.07
2023-03-12T06:52:00.701Z,5.15
2023-03-12T06:53:02.568Z,4.18
2023-03-12T06:54:05.030Z,4.57
2023-03-12T06:55:07.265Z,4.30
2023-03-12T06:56:09.826Z,4.45
2023-03-12T06:57:11.848Z,4.63
2023-03-12T06:58:14.014Z,4.72
2023-03-12T06:59:16.134Z,4.78
2023-03-12T07:00:18.372Z,5.00
2023-03-12T07:01:20.375Z,4.50
2023-03-12T07:02:22.367Z,4.70
2023-03-12T07:03:24.643Z,4.82
2023-03-12T07:04:26.690Z,5.30
2023-03-12T07:05:30.175Z,4.97
2023-03-12T07:06:32.211Z,4.47
2023-03-12T07:07:34.256Z,4.10
2023-03-12T07:08:36.146Z,4.75
2023-03-12T07:09:38.129Z,4.88
2023-03-12T07:10:40.416Z,4.72
2023-03-12T07:11:42.412Z,4.72
2023-03-12T07:12:44.937Z,4.57
2023-03-12T07:13:47.516Z,4.10
2023-03-12T07:14:49.619Z,4.40
2023-03-12T07:15:51.623Z,4.60
2023-03-12T07:16:53.560Z,4.75
2023-03-12T07:17:55.510Z,4.75
2023-03-12T07:18:57.396Z,4.03
2023-03-12T07:19:59.425Z,4.57
2023-03-12T07:21:01.497Z,4.00
2023-03-12T07:22:03.435Z,3.70
2023-03-12T07:23:05.595Z,4.13
2023-03-12T07:24:08.384Z,3.67
2023-03-12T07:25:10.509Z,3.97
2023-03-12T07:26:12.429Z,4.60
2023-03-12T07:27:14.334Z,4.60
2023-03-12T07:28:17.398Z,5.15
2023-03-12T07:29:19.275Z,4.57
2023-03-12T07:30:22.099Z,4.65
2023-03-12T07:31:23.989Z,4.72
2023-03-12T07:32:26.004Z,4.82
2023-03-12T07:33:27.971Z,5.07
2023-03-12T07:34:29.992Z,5.20
2023-03-12T07:35:32.971Z,4.40
2023-03-12T07:36:35.067Z,4.72
2023-03-12T07:37:37.044Z,4.93
2023-03-12T07:38:38.941Z,4.63
2023-03-12T07:39:40.989Z,4.97
2023-03-12T07:40:43.245Z,4.93
2023-03-12T07:41:45.310Z,4.95
2023-03-12T07:42:47.166Z,5.18
2023-03-12T07:43:49.499Z,4.45
2023-03-12T07:44:51.480Z,5.07
2023-03-12T07:45:53.449Z,5.28
2023-03-12T07:46:55.532Z,5.63
2023-03-12T07:47:57.991Z,5.50
2023-03-12T07:48:59.909Z,5.68
2023-03-12T07:50:02.144Z,6.63
2023-03-12T07:51:04.572Z,5.45
2023-03-12T07:52:10.044Z,5.32
2023-03-12T07:53:12.009Z,5.55
2023-03-12T07:54:13.995Z,5.47
2023-03-12T07:55:16.566Z,5.50
2023-03-12T07:56:18.792Z,5.78
2023-03-12T10:09:56.200Z,3.45
2023-03-12T10:11:20.815Z,3.15
2023-03-12T10:12:40.276Z,3.42
2023-03-12T10:14:00.294Z,2.15
2023-03-12T10:15:15.554Z,2.88
2023-03-12T10:16:25.877Z,1.90
2023-03-12T10:17:40.105Z,2.10
2023-03-12T10:19:05.092Z,2.42
2023-03-12T10:20:24.909Z,4.15
2023-03-12T10:21:34.924Z,1.60
2023-03-12T10:23:07.534Z,1.60
2023-03-12T10:24:12.193Z,1.55
2023-03-12T10:25:16.795Z,1.70
2023-03-12T10:26:47.421Z,1.60
2023-03-12T10:27:50.594Z,2.00
2023-03-12T10:29:02.382Z,1.98
2023-03-12T10:30:25.809Z,1.80
2023-03-12T10:31:54.459Z,1.63
2023-03-12T10:33:00.135Z,1.70
2023-03-12T10:34:09.236Z,1.42
2023-03-12T10:35:15.742Z,1.90
2023-03-12T10:36:21.304Z,2.08
2023-03-12T10:37:37.665Z,2.45
2023-03-12T11:11:48.091Z,1.27
2023-03-12T11:13:03.531Z,1.40
2023-03-12T11:14:15.956Z,1.13
2023-03-12T11:15:29.287Z,1.30
2023-03-12T11:16:32.293Z,1.13
2023-03-12T11:17:34.428Z,1.02
2023-03-12T11:18:37.766Z,1.30
2023-03-12T11:19:40.557Z,1.15
2023-03-12T11:20:42.956Z,1.75
2023-03-12T11:21:57.597Z,1.15
2023-03-12T11:23:21.926Z,1.88
2023-03-12T11:24:23.975Z,1.30
2023-03-12T11:25:29.031Z,1.20
2023-03-12T11:26:44.600Z,1.52
2023-03-12T11:27:50.973Z,1.05
2023-03-12T11:29:02.459Z,1.52
2023-03-12T11:30:10.659Z,1.75
2023-03-12T11:31:41.505Z,1.30
2023-03-12T11:32:49.818Z,0.57
2023-03-12T11:33:54.743Z,0.80
2023-03-12T11:34:56.848Z,0.77
2023-03-12T11:36:09.307Z,0.70
2023-03-12T11:37:36.907Z,1.08
2023-03-12T11:38:42.309Z,1.30
2023-03-12T11:39:59.286Z,2.13
2023-03-12T11:41:19.760Z,1.92
2023-03-12T11:42:56.488Z,2.00
2023-03-12T11:44:23.268Z,0.95
2023-03-12T11:45:41.110Z,1.25
2023-03-12T11:46:48.915Z,1.10
2023-03-12T11:48:06.204Z,0.70
2023-03-12T11:49:24.076Z,0.50
2023-03-12T11:50:47.153Z,1.00
2023-03-12T11:51:58.080Z,0.90
2023-03-12T11:53:29.296Z,0.80
2023-03-12T11:55:16.348Z,0.90
2023-03-12T11:56:21.217Z,1.13
2023-03-12T11:57:51.332Z,1.30
2023-03-12T11:59:24.873Z,1.05
2023-03-12T12:00:42.936Z,1.20
2023-03-12T12:02:16.138Z,0.88
2023-03-12T12:03:30.830Z,1.13
2023-03-12T12:05:14.031Z,1.75
2023-03-12T12:06:40.268Z,1.38
2023-03-12T12:08:03.366Z,1.48
2023-03-12T12:09:19.368Z,0.70
2023-03-12T12:10:44.905Z,1.20
2023-03-12T12:11:57.399Z,0.73
2023-03-12T12:13:06.552Z,1.08
2023-03-12T12:14:24.171Z,1.50
2023-03-12T12:16:08.664Z,1.00
2023-03-12T12:17:34.808Z,0.93
2023-03-12T12:18:57.846Z,0.95
2023-03-12T12:20:09.359Z,0.80
2023-03-12T12:21:35.296Z,0.73
2023-03-12T12:22:56.183Z,0.70
2023-03-12T12:24:12.764Z,1.40
2023-03-12T12:25:36.819Z,0.85
2023-03-12T12:26:49.927Z,1.55
2023-03-12T12:27:54.661Z,1.00
2023-03-12T12:29:04.326Z,1.00
2023-03-12T12:30:30.797Z,1.25
2023-03-12T12:31:46.462Z,0.90
2023-03-12T12:32:48.500Z,0.75
2023-03-12T12:34:31.385Z,1.48
2023-03-12T12:35:37.897Z,3.53
2023-03-12T12:36:40.039Z,2.53
2023-03-12T12:38:04.972Z,1.88
2023-03-12T12:39:36.813Z,0.77
2023-03-12T12:40:41.542Z,1.25
2023-03-12T12:41:50.027Z,1.05
2023-03-12T12:43:19.815Z,0.80
2023-03-12T12:44:32.224Z,0.80
2023-03-12T12:45:38.769Z,0.73
2023-03-12T12:46:48.028Z,1.00
2023-03-12T12:48:15.685Z,0.80
2023-03-12T12:49:41.072Z,0.80
2023-03-12T12:50:44.648Z,1.10
2023-03-12T12:51:58.420Z,0.68
2023-03-12T12:53:22.984Z,0.85
2023-03-12T12:54:38.582Z,0.93
2023-03-12T12:56:15.300Z,1.42
2023-03-12T12:57:23.426Z,1.70
2023-03-12T12:58:44.126Z,2.80
2023-03-12T13:00:01.169Z,2.20
2023-03-12T13:01:03.542Z,1.60
2023-03-12T13:02:17.047Z,1.05
2023-03-12T13:03:21.715Z,1.33
2023-03-12T13:04:36.592Z,1.08
2023-03-12T13:05:38.481Z,0.98
2023-03-12T13:07:03.841Z,0.65
2023-03-12T13:08:10.549Z,0.80
2023-03-12T13:09:21.247Z,0.80
2023-03-12T13:10:35.243Z,0.63
2023-03-12T13:11:47.145Z,0.85
2023-03-12T13:12:56.292Z,0.90
2023-03-12T13:14:04.071Z,1.15
2023-03-12T13:15:33.032Z,0.60
2023-03-12T13:16:44.157Z,0.50
2023-03-12T13:17:52.011Z,0.70
2023-03-12T13:18:59.356Z,0.47
2023-03-12T13:20:12.115Z,2.00
2023-03-12T13:21:24.917Z,1.98
2023-03-12T13:22:37.886Z,1.67
2023-03-12T13:23:48.316Z,1.60
2023-03-12T13:25:11.076Z,1.52
2023-03-12T13:26:25.053Z,1.40
2023-03-12T13:27:36.194Z,0.90
2023-03-12T13:28:56.882Z,1.30
2023-03-12T13:30:32.819Z,1.50
2023-03-12T13:31:36.504Z,2.17
2023-03-12T13:32:58.458Z,2.00
2023-03-12T13:34:20.611Z,1.98
2023-03-12T13:35:22.579Z,2.25
2023-03-12T13:36:28.377Z,2.20
2023-03-12T13:37:52.322Z,1.98
2023-03-12T13:39:17.443Z,1.50
2023-03-12T13:40:31.181Z,1.60
2023-03-12T13:41:40.335Z,1.85
2023-03-12T13:42:42.278Z,1.52
2023-03-12T13:43:50.147Z,0.88
2023-03-12T13:44:53.542Z,1.08
2023-03-12T13:46:21.021Z,1.10
2023-03-12T13:47:44.232Z,1.27
2023-03-12T13:48:50.967Z,1.80
2023-03-12T13:49:59.435Z,1.00
2023-03-12T13:51:23.266Z,1.08
2023-03-12T13:52:37.617Z,1.70
2023-03-12T13:53:40.869Z,0.88
2023-03-12T13:54:47.781Z,1.13
2023-03-12T13:56:08.603Z,1.90
2023-03-12T13:57:43.355Z,1.90
2023-03-12T13:58:54.461Z,2.22
2023-03-12T13:59:57.700Z,2.10
2023-03-12T14:01:05.883Z,1.60
2023-03-12T14:02:24.675Z,1.35
2023-03-12T14:03:29.671Z,1.42
2023-03-12T14:04:41.094Z,1.20
2023-03-12T14:05:50.648Z,1.30
2023-03-12T14:07:05.691Z,1.25
2023-03-12T14:08:16.181Z,1.10
2023-03-12T14:09:29.607Z,0.70
2023-03-12T14:10:47.499Z,0.93
2023-03-12T14:12:04.596Z,0.73
2023-03-12T14:13:24.635Z,1.35
2023-03-12T14:14:44.302Z,1.83
2023-03-12T14:16:10.656Z,2.10
2023-03-12T14:17:19.169Z,1.95
2023-03-12T14:18:27.338Z,2.22
2023-03-12T14:19:31.593Z,2.40
2023-03-12T14:20:38.464Z,2.28
2023-03-12T14:21:43.402Z,1.40
2023-03-12T14:22:52.609Z,1.00
2023-03-12T14:23:57.769Z,1.00
2023-03-12T14:25:05.197Z,1.20
2023-03-12T14:26:08.581Z,1.13
2023-03-12T14:27:22.187Z,1.10
2023-03-12T14:28:25.719Z,0.65
2023-03-12T14:29:29.910Z,0.88
2023-03-12T14:30:48.773Z,1.08
2023-03-12T14:31:52.272Z,0.90
2023-03-12T14:32:59.565Z,1.50
2023-03-12T14:34:14.741Z,1.00
2023-03-12T14:35:29.042Z,1.17
2023-03-12T14:36:42.791Z,1.35
2023-03-12T14:38:10.188Z,0.70
2023-03-12T14:39:41.867Z,0.90
2023-03-12T14:41:00.497Z,0.85
2023-03-12T14:42:05.456Z,0.60
2023-03-12T14:43:25.124Z,0.60
2023-03-12T14:44:30.821Z,0.60
2023-03-12T14:45:39.544Z,0.60
2023-03-12T14:46:55.739Z,1.00
2023-03-12T14:47:59.162Z,0.80
2023-03-12T14:49:01.276Z,0.70
2023-03-12T14:50:04.300Z,0.60
2023-03-12T14:51:08.118Z,0.57
2023-03-12T14:52:15.006Z,0.85
2023-03-12T14:53:23.793Z,1.00
2023-03-12T14:54:28.342Z,0.80
2023-03-12T14:55:30.436Z,0.73
2023-03-12T14:56:35.461Z,0.90
2023-03-12T14:57:37.428Z,1.00
2023-03-12T14:58:46.571Z,0.82
2023-03-12T15:00:01.897Z,0.73
2023-03-12T15:01:07.038Z,1.13
2023-03-12T15:02:14.918Z,0.70
2023-03-12T15:03:17.798Z,1.10
2023-03-12T15:04:23.251Z,1.08
2023-03-12T15:05:26.709Z,0.98
2023-03-12T15:06:30.475Z,0.80
2023-03-12T15:07:39.589Z,0.75
2023-03-12T15:08:44.501Z,1.05
2023-03-12T15:09:52.202Z,1.15
2023-03-12T15:10:58.695Z,1.35
2023-03-12T15:12:06.864Z,0.90
2023-03-12T15:13:13.003Z,0.82
2023-03-12T15:14:16.623Z,0.90
2023-03-12T15:15:46.806Z,0.70
2023-03-12T15:16:49.442Z,1.00
2023-03-12T15:17:51.788Z,0.60
2023-03-12T15:18:54.105Z,1.10
2023-03-12T15:19:57.312Z,1.55
2023-03-12T15:21:03.390Z,1.33
2023-03-12T15:22:07.413Z,1.65
2023-03-12T15:23:13.004Z,1.20
2023-03-12T15:24:15.165Z,0.93
2023-03-12T15:25:28.950Z,1.10
2023-03-12T15:26:34.833Z,0.90
2023-03-12T15:27:36.889Z,1.05
2023-03-12T15:28:40.067Z,1.25
2023-03-12T15:29:42.206Z,1.25
2023-03-12T15:30:44.628Z,1.10
2023-03-12T15:31:47.959Z,1.00
2023-03-12T15:33:08.600Z,1.05
2023-03-12T15:34:13.415Z,0.80
2023-03-12T15:35:15.638Z,0.80
2023-03-12T15:36:25.538Z,0.82
2023-03-12T15:37:38.001Z,0.80
2023-03-12T15:38:46.323Z,1.13
2023-03-12T15:39:52.215Z,1.13
2023-03-12T15:40:58.569Z,1.80
2023-03-12T15:42:09.406Z,2.35
2023-03-12T15:43:18.110Z,2.10
2023-03-12T15:44:23.716Z,1.10
2023-03-12T15:45:32.130Z,1.60
2023-03-12T15:46:34.851Z,2.00
2023-03-12T15:47:40.742Z,1.70
2023-03-12T15:48:50.407Z,1.35
2023-03-12T15:49:59.582Z,1.67
2023-03-12T15:51:02.162Z,1.98
2023-03-12T15:52:27.050Z,1.63
2023-03-12T15:53:34.296Z,1.60
2023-03-12T15:54:40.573Z,1.52
2023-03-12T15:55:43.522Z,1.50
2023-03-12T15:56:45.923Z,1.42
2023-03-12T15:57:52.912Z,1.88
2023-03-12T15:59:20.290Z,2.10
2023-03-12T16:00:28.450Z,1.42
2023-03-12T16:01:30.726Z,1.73
2023-03-12T16:02:52.590Z,1.85
2023-03-12T16:03:55.437Z,2.20
2023-03-12T16:05:00.610Z,2.75
2023-03-12T16:06:07.650Z,2.60
2023-03-12T16:07:13.319Z,2.65
2023-03-12T16:08:18.316Z,2.60
2023-03-12T16:09:24.678Z,2.97
2023-03-12T16:10:28.185Z,3.72
2023-03-12T16:11:36.027Z,3.20
2023-03-12T16:12:38.405Z,3.35
2023-03-12T16:13:42.084Z,3.95
2023-03-12T16:14:44.877Z,4.20
2023-03-12T16:15:48.206Z,5.40
2023-03-12T16:16:51.376Z,5.43
2023-03-12T16:17:53.446Z,5.40
2023-03-12T16:18:55.497Z,5.10
2023-03-12T16:19:57.512Z,4.65
2023-03-12T16:20:59.414Z,4.68
2023-03-12T16:22:01.522Z,5.07
2023-03-12T16:23:03.610Z,4.75
2023-03-12T16:24:05.738Z,4.05
2023-03-12T16:25:10.647Z,4.40
2023-03-12T16:26:15.433Z,4.55
2023-03-12T16:27:23.753Z,4.93
2023-03-12T16:28:35.656Z,5.63
2023-03-12T16:29:38.719Z,5.70
2023-03-12T16:30:41.270Z,5.78
2023-03-12T16:31:43.223Z,6.18
2023-03-12T16:32:45.390Z,5.95
2023-03-12T16:33:47.895Z,7.03
2023-03-12T16:34:50.123Z,6.50
2023-03-12T16:35:52.787Z,7.43
2023-03-12T16:36:54.975Z,7.68
2023-03-12T16:37:57.958Z,6.88
2023-03-12T16:39:04.324Z,7.43
2023-03-12T16:40:07.067Z,9.00
2023-03-12T16:41:16.125Z,7.68
2023-03-12T16:42:19.605Z,7.55
2023-03-12T16:43:24.182Z,9.35
2023-03-12T16:44:31.033Z,10.77
2023-03-12T16:45:37.135Z,11.35
2023-03-12T16:46:39.583Z,9.18
2023-03-12T16:47:42.500Z,8.13
2023-03-12T16:48:44.656Z,7.38
2023-03-12T16:49:46.770Z,5.93
2023-03-12T16:50:51.930Z,6.25
2023-03-12T16:51:54.214Z,6.07
2023-03-12T16:52:56.645Z,5.70
2023-03-12T16:54:09.618Z,5.32
2023-03-12T16:55:15.073Z,6.10
2023-03-12T16:56:22.961Z,6.15
2023-03-12T16:57:35.011Z,5.22
2023-03-12T16:58:39.592Z,5.13
2023-03-12T16:59:41.757Z,5.03
2023-03-12T17:00:44.369Z,4.88
2023-03-12T17:01:46.691Z,5.38
2023-03-12T17:02:49.975Z,4.20
2023-03-12T17:03:54.251Z,4.88
2023-03-12T17:04:56.726Z,4.35
2023-03-12T17:05:59.154Z,5.15
2023-03-12T17:07:01.263Z,4.40
2023-03-12T17:08:03.648Z,4.15
2023-03-12T17:09:08.421Z,4.78
2023-03-12T17:10:11.927Z,5.25
2023-03-12T17:11:30.330Z,4.93
2023-03-12T17:12:36.613Z,4.57
2023-03-12T17:13:38.868Z,4.95
2023-03-12T17:14:41.096Z,4.72
2023-03-12T17:15:44.173Z,5.22
2023-03-12T17:16:46.216Z,5.32
2023-03-12T17:17:50.042Z,5.63
2023-03-12T17:18:53.222Z,6.05
2023-03-12T17:19:55.709Z,5.45
2023-03-12T17:20:58.165Z,6.18
2023-03-12T17:22:01.229Z,6.38
2023-03-12T17:23:04.823Z,6.25
2023-03-12T17:24:07.247Z,6.50
2023-03-12T17:25:22.487Z,6.07
2023-03-12T17:26:24.672Z,6.85
2023-03-12T17:27:26.716Z,7.00
2023-03-12T17:28:28.861Z,6.07
2023-03-12T17:29:30.977Z,6.40
2023-03-12T17:30:34.479Z,7.30
2023-03-12T17:31:37.722Z,7.63
2023-03-12T17:32:40.017Z,6.70
2023-03-12T17:33:43.371Z,5.80
2023-03-12T17:34:48.104Z,5.22
2023-03-12T17:36:09.535Z,6.40
2023-03-12T17:38:14.331Z,6.07
2023-03-12T17:39:16.469Z,6.72
2023-03-12T17:40:18.834Z,6.95
2023-03-12T17:41:26.466Z,6.60
2023-03-12T17:42:31.419Z,6.85
2023-03-12T17:43:35.059Z,6.68
2023-03-12T17:44:39.108Z,6.53
2023-03-12T17:45:43.066Z,7.00
2023-03-12T17:46:58.420Z,6.90
2023-03-12T17:48:01.462Z,7.18
2023-03-12T17:49:04.123Z,6.47
2023-03-12T17:50:07.517Z,6.55
2023-03-12T17:51:11.096Z,6.75
2023-03-12T17:52:13.765Z,7.00
2023-03-12T17:53:18.049Z,7.13
2023-03-12T17:54:20.278Z,7.18
2023-03-12T17:55:22.425Z,7.00
2023-03-12T17:56:24.664Z,6.22
2023-03-12T17:57:27.230Z,6.55
2023-03-12T17:58:29.279Z,5.18
2023-03-12T17:59:31.583Z,4.80
2023-03-12T18:00:34.139Z,4.05
2023-03-12T18:01:36.252Z,4.30
2023-03-12T18:02:41.663Z,4.10
2023-03-12T18:03:44.535Z,4.80
2023-03-12T18:04:47.091Z,3.70
2023-03-12T18:05:50.910Z,3.85
2023-03-12T18:06:53.907Z,3.45
2023-03-12T18:07:55.950Z,4.95
2023-03-12T18:08:57.980Z,6.22
2023-03-12T18:10:00.096Z,3.33
2023-03-12T18:11:03.362Z,2.40
2023-03-12T18:12:05.726Z,2.70
2023-03-12T18:13:07.995Z,3.75
2023-03-12T18:14:10.108Z,4.00
2023-03-12T18:15:14.781Z,4.13
2023-03-12T18:16:17.717Z,4.00